ADDS METAR Data INFO
IDs: Format: Raw Decoded Include TAF

Data at: 1811 UTC 18 Feb 2018

KEWB 181753Z 30007KT 270V330 10SM FEW041 07/M02 A3021 RMK AO2 SLP230 60001 T00671017 10067 20006 53027
KEWB 181653Z 36009G19KT 330V050 10SM FEW034 05/M02 A3016 RMK AO2 SLP213 T00501022
KEWB 181553Z 33010G22KT 300V010 10SM CLR 04/M02 A3017 RMK AO2 SLP215 T00391017
KEWB 181453Z VRB06G18KT 10SM CLR 03/00 A3013 RMK AO2 SLP203 60001 T00280000 53039
KEWB 181353Z 30010KT 10SM CLR 02/00 A3007 RMK AO2 PRESRR SLP182 T00170000
KEWB 181304Z 31010G16KT 10SM SCT010 01/00 A3002 RMK AO2 T00110000
KEWB 181253Z 31010G16KT 10SM BKN010 01/00 A3001 RMK AO2 SNB1155E08 CIG 007V014 SLP163 P0001 T00060000
KEWB 181153Z VRB06G15KT 5SM BR BKN009 OVC043 01/00 A2996 RMK AO2 SNE48 SLP145 P0000 60024 70060 T00060000 10011 20006 53035
KEWB 181115Z 31008G16KT 6SM -SN BR OVC006 01/01 A2992 RMK AO2 P0000 T00060006
KEWB 181053Z AUTO 30007KT 2 1/2SM -SN BR BKN005 BKN010 OVC017 01/01 A2990 RMK AO2 RAE21SNB21 SLP125 P0006 T00060006
KEWB 181051Z AUTO 30007KT 2 1/2SM -SN BR BKN005 BKN010 OVC017 01/01 A2990 RMK AO2 RAE21SNB21 P0006
KEWB 180953Z AUTO 32003KT 6SM -RA BR FEW004 SCT014 OVC018 01/01 A2986 RMK AO2 UPB17E18 SLP114 P0003 T00060006
KEWB 180949Z AUTO 30004KT 6SM -RA BR FEW004 SCT014 OVC020 01/01 A2986 RMK AO2 UPB17E18 P0003
KEWB 180945Z AUTO 31003KT 6SM -RA BR BKN014 OVC020 01/01 A2986 RMK AO2 UPB17E18 P0003 T00060006
KEWB 180916Z AUTO 31003KT 8SM -RA OVC015 01/01 A2985 RMK AO2 P0001 T00060006
KEWB 180853Z AUTO 33003KT 6SM -RA BR OVC014 01/01 A2985 RMK AO2 SLP109 P0004 60015 T00060006 58026
KEWB 180843Z AUTO 00000KT 7SM -RA OVC014 01/01 A2986 RMK AO2 P0003 T00060006
KEWB 180753Z AUTO 35004KT 10SM -RA BKN017 OVC023 01/01 A2988 RMK AO2 SLP117 P0003 T00110011
KEWB 180734Z AUTO 35004KT 9SM -RA SCT004 SCT011 OVC022 01/01 A2987 RMK AO2 P0002 T00110011
KEWB 180715Z AUTO 36003KT 5SM -RA BR BKN004 OVC010 01/01 A2989 RMK AO2 PRESFR P0001 T00060006
KEWB 180705Z AUTO 00000KT 5SM -RA BR OVC005 01/01 A2991 RMK AO2 P0001 T00110011
KEWB 180653Z AUTO 00000KT 5SM -RA BR OVC004 01/01 A2993 RMK AO2 CIG 003V008 SLP135 P0008 T00110011
KEWB 180651Z AUTO 00000KT 5SM -RA BR OVC004 01/01 A2993 RMK AO2 CIG 003V008 P0008
KEWB 180553Z AUTO 12003KT 5SM RA BR OVC005 01/01 A2996 RMK AO2 RAB05SNE05 SLP146 P0012 60036 T00110011 10017 20006 56064
KEWB 180453Z AUTO 10005KT 4SM -SN BR OVC005 01/01 A3002 RMK AO2 SLP165 P0009 T00060006 400281033
KEWB 180450Z AUTO 11007KT 3SM -SN BR OVC005 01/01 A3002 RMK AO2 P0008
KEWB 180443Z AUTO 10008KT 2SM -SN BR OVC004 01/01 A3002 RMK AO2 PRESFR P0007 T00060006
KEWB 180353Z AUTO 11007KT 1SM R05/5500VP6000FT -SN BR VV006 01/01 A3008 RMK AO2 PRESFR SLP188 P0010 T00060006
KEWB 180341Z AUTO 11007KT 1SM R05/6000VP6000FT -SN BR VV006 01/01 A3010 RMK AO2 P0008 T00060006
KEWB 180315Z AUTO 11007KT 3/4SM R05/5500FT -SN BR OVC005 01/01 A3013 RMK AO2 PRESFR P0004 T00060006
KEWB 180253Z 12006KT 1 1/4SM -SN BR OVC004 01/01 A3015 RMK AO2 SLP210 P0005 60005 T00060006 56029
KEWB 180240Z 12009KT 1 1/4SM -SN BR OVC005 01/01 A3016 RMK AO2 P0004 T00060006
KEWB 180226Z 13008KT 1SM R05/5500VP6000FT -SN BR OVC004 01/01 A3017 RMK AO2 P0003 T00060006
KEWB 180219Z 13008KT 3/4SM R05/5000V6000FT -SN BR SCT004 OVC009 01/01 A3017 RMK AO2 PRESFR P0003 T00060006
KEWB 180210Z 12006KT 3/4SM R05/5000VP6000FT -SN BR FEW005 OVC011 01/00 A3018 RMK AO2 PRESFR P0002 T00060000
KEWB 180153Z 13007KT 1SM R05/P6000FT -SN BR VV014 01/00 A3021 RMK AO2 SNB10 SLP231 P0000 T00060000
KEWB 180136Z 14012KT 1 3/4SM -SN BR OVC021 01/M01 A3023 RMK AO2 SNB10 P0000 T00111011
KEWB 180116Z 13005KT 3SM -SN BKN027 OVC043 01/M02 A3022 RMK AO2 SNB10 P0000 T00111017
KEWB 180053Z 12005KT 10SM OVC042 01/M02 A3024 RMK AO2 SLP240 T00111022
KEWB 172353Z 12007KT 10SM BKN039 BKN048 OVC075 01/M03 A3027 RMK AO2 SLP250 T00111028 10028 20006 58029
KEWB 172253Z 16007KT 10SM OVC037 01/M03 A3031 RMK AO2 SLP264 T00111028
KEWB 172153Z 17008KT 10SM OVC033 01/M04 A3032 RMK AO2 SLP268 T00111039
KEWB 172053Z 18007KT 10SM CLR 01/M06 A3036 RMK AO2 SLP280 T00111056 53000
KEWB 171953Z 16007KT 10SM CLR 02/M06 A3034 RMK AO2 PRESRR SLP276 T00221061
KEWB 171853Z 14010KT 10SM CLR 02/M08 A3033 RMK AO2 SLP273 T00221083
KEWB 171753Z 14009KT 10SM CLR 02/M11 A3036 RMK AO2 SLP280 T00221106 10028 21033 58015
KEWB 171653Z VRB06KT 10SM CLR 02/M11 A3038 RMK AO2 SLP289 T00171106
KEWB 171553Z 17003KT 10SM CLR 01/M12 A3041 RMK AO2 SLP298 T00111117
KEWB 171453Z 36005KT 10SM CLR 01/M11 A3040 RMK AO2 SLP294 T00061111 50012
KEWB 171353Z 02006KT 10SM CLR M01/M10 A3041 RMK AO2 SLP297 T10061100
KEWB 171253Z 32004KT 10SM CLR M01/M09 A3040 RMK AO2 SLP296 T10111094
KEWB 171153Z VRB03KT 10SM CLR M03/M09 A3036 RMK AO2 SLP283 70002 T10281089 10017 21033 51040
KEWB 171053Z AUTO 00000KT 10SM CLR M02/M09 A3033 RMK AO2 SLP270 T10221089
KEWB 170953Z AUTO 34006KT 10SM CLR M02/M08 A3029 RMK AO2 SLP257 T10171083
KEWB 170853Z AUTO VRB05KT 10SM CLR M01/M08 A3025 RMK AO2 PRESRR SLP243 T10111078 53045
KEWB 170753Z AUTO VRB03KT 10SM CLR M01/M08 A3020 RMK AO2 SLP227 T10061078
KEWB 170653Z AUTO 32005KT 10SM CLR 01/M08 A3016 RMK AO2 SLP212 T00061078